Aeroporto :







RITROVATECI SU...

 
LOGIN :

Iscrizione | Disclaimer

   EN    FR    IT 

 









Sommario :    VFR   VFR Marginale   IFR   IFR Intensivo   IFR Molto Intensivo
Visibilità : 
Base nubi : 
>= 8 km
>= 3000ft
5 / 8 km
1000 / 3000 ft
1500m / 5 km
500 / 1000 ft
800 / 1500m
200 / 500 ft
< 800m
< 200 ft
Simboli :   Temporali  Nebbia  Neve Forte  Precipitazioni Forti  Vento > 20 kt






- Altitudine del aeroporto : 47 ft
- Codice IATA : PUJ


MDPC - Punta Cana Int.

ULTIMO METAR :
  • 022200Z 08010KT 9999 FEW022 SCT070 28/23 Q1016

METARs OBSOLETI :
  • 022100Z 07010KT 9999 FEW023 29/24 Q1016 NOSIG
  • 022000Z 08010KT 9999 FEW023 30/23 Q1016 NOSIG

TAF TAF MDPC
Valido dal 02 a 18 ore il 03 a 18 ore UTC


021600Z 0218/0318 09010KT 9999 SCT022
BECMG 0216/0218 12010KT
PROB30 0218/0300 8000 -SH BKN018
FIR MDCS / America del Nord



MetMap, La meteo Aeronautica in un colpo d'occhio ! - Copyright ORBIFLY Dicembre 2007 - Disclaimer

ORBIFLY MET'MAP TEAM :

Programmazione e sviluppo : Alexandra Zaïnal
Concezione : Baudouin d'Aumeries
Aiuto per la programmazione : Marc-Olivier Méhu
Supporto tecnico e logistico : Manuel Goepfert
Aiuto per la traduzione : Arnaldo La Scala

Contatto : metmap@orbifly.com




FONTI E CREDITI :

   NOAA